Time;durP1;ratioP1;P1;durP2;ratioP2;P2;SDS_P1;SDS_P2;PMS_P1;PMS_P2;Temp;Humidity;BMP_temperature;BMP_pressure;BME280_temperature;BME280_humidity;BME280_pressure;Samples;Min_cycle;Max_cycle;Signal;HPM_P1;HPM_P2
2022/05/27 00:02:23;;;;;;;;;11.00;11.00;26.80;36.00;;;;;;4976813;28;8897;-74
2022/05/27 00:04:49;;;;;;;;;11.67;11.67;26.80;36.10;;;;;;4976994;28;8781;-74
2022/05/27 00:07:15;;;;;;;;;12.00;12.00;26.80;36.00;;;;;;4976727;28;8794;-74
2022/05/27 00:09:40;;;;;;;;;10.33;10.33;26.70;36.00;;;;;;4973727;28;8785;-73
2022/05/27 00:12:06;;;;;;;;;11.00;11.00;26.70;37.20;;;;;;4969527;28;8785;-74
2022/05/27 00:14:32;;;;;;;;;12.67;12.67;26.50;36.40;;;;;;4958097;28;8816;-73
2022/05/27 00:16:58;;;;;;;;;12.33;12.33;26.50;36.60;;;;;;4957217;28;9415;-73
2022/05/27 00:19:24;;;;;;;;;12.33;12.33;26.20;37.80;;;;;;4957318;28;8807;-73
2022/05/27 00:21:50;;;;;;;;;12.00;11.00;26.20;37.00;;;;;;4972149;28;8915;-73
2022/05/27 00:24:16;;;;;;;;;13.00;13.00;26.10;37.20;;;;;;4957111;28;8788;-73
2022/05/27 00:26:41;;;;;;;;;10.00;10.00;25.90;37.30;;;;;;4957248;28;8792;-72
2022/05/27 00:29:07;;;;;;;;;13.33;13.33;26.00;37.30;;;;;;4957031;28;8792;-73
2022/05/27 00:31:33;;;;;;;;;11.00;11.00;26.10;37.10;;;;;;4972004;28;8819;-73
2022/05/27 00:33:59;;;;;;;;;11.00;11.00;26.20;36.80;;;;;;4957013;28;8819;-73
2022/05/27 00:36:24;;;;;;;;;12.33;12.33;26.20;36.60;;;;;;4956886;28;8788;-73
2022/05/27 00:38:50;;;;;;;;;11.33;11.33;26.20;36.50;;;;;;4960043;28;8906;-74
2022/05/27 00:41:17;;;;;;;;;12.67;12.67;26.20;36.60;;;;;;4971662;28;8909;-73
2022/05/27 00:43:43;;;;;;;;;12.00;12.00;26.10;36.80;;;;;;4962556;28;8813;-73
2022/05/27 00:46:25;;;;;;;;;14.67;14.67;26.10;37.10;;;;;;4976108;28;8769;-73
2022/05/27 00:48:54;;;;;;;;;13.33;13.33;25.90;37.20;;;;;;4969998;28;8794;-74
2022/05/27 00:51:29;;;;;;;;;11.00;11.00;25.60;37.70;;;;;;4958730;28;8793;-73
2022/05/27 00:54:04;;;;;;;;;14.00;14.00;25.70;37.70;;;;;;4956681;28;8768;-73
2022/05/27 00:56:32;;;;;;;;;14.33;14.33;25.80;37.50;;;;;;4956737;28;8772;-73
2022/05/27 00:59:02;;;;;;;;;10.00;10.00;25.90;37.40;;;;;;4956623;28;8772;-73
2022/05/27 01:01:29;;;;;;;;;11.00;11.00;25.90;37.30;;;;;;4956617;28;8804;-73
2022/05/27 01:03:57;;;;;;;;;11.67;11.67;25.80;37.30;;;;;;4956559;28;8795;-73
2022/05/27 01:06:23;;;;;;;;;11.00;11.00;25.80;37.40;;;;;;4956484;28;8788;-73
2022/05/27 01:08:49;;;;;;;;;9.33;9.33;25.90;37.30;;;;;;4956534;28;8811;-73
2022/05/27 01:11:29;;;;;;;;;13.67;13.67;25.90;37.30;;;;;;4956801;28;9422;-72
2022/05/27 01:14:26;;;;;;;;;10.33;10.33;25.80;37.50;;;;;;4956606;28;8812;-73
2022/05/27 01:17:04;;;;;;;;;11.00;11.00;25.80;38.90;;;;;;4955945;28;8800;-73
2022/05/27 01:22:56;;;;;;;;;12.33;12.33;25.30;38.90;;;;;;4956369;28;8756;-73
2022/05/27 01:25:39;;;;;;;;;11.00;11.00;25.30;39.40;;;;;;4956387;28;8761;-73
2022/05/27 01:28:34;;;;;;;;;12.67;12.67;25.40;39.10;;;;;;4956359;28;8867;-73
2022/05/27 01:31:18;;;;;;;;;11.00;11.00;25.50;38.70;;;;;;4956163;28;8870;-74
2022/05/27 01:33:56;;;;;;;;;9.00;9.00;25.60;38.70;;;;;;4956091;28;8840;-74
2022/05/27 01:36:38;;;;;;;;;13.33;13.33;25.70;38.60;;;;;;4956249;29;8772;-73
2022/05/27 01:39:21;;;;;;;;;11.33;11.33;25.70;38.50;;;;;;4955183;29;8796;-74
2022/05/27 01:41:51;;;;;;;;;9.33;9.33;25.70;38.40;;;;;;4956260;29;8930;-73
2022/05/27 01:44:55;;;;;;;;;12.00;12.00;25.70;38.60;;;;;;4956390;28;9687;-74
2022/05/27 01:47:44;;;;;;;;;12.67;12.67;25.70;39.10;;;;;;4947287;28;8818;-73
2022/05/27 01:50:26;;;;;;;;;13.67;13.67;25.70;39.20;;;;;;4955931;29;8796;-74
2022/05/27 01:52:57;;;;;;;;;14.00;14.00;25.80;38.90;;;;;;4956325;29;8783;-74
2022/05/27 01:55:32;;;;;;;;;14.00;14.00;25.70;39.00;;;;;;4955966;29;8791;-74
2022/05/27 01:58:06;;;;;;;;;13.33;13.33;25.80;38.90;;;;;;4956260;29;8876;-73
2022/05/27 02:00:34;;;;;;;;;14.67;14.67;25.70;38.80;;;;;;4957367;28;8855;-74
2022/05/27 02:03:18;;;;;;;;;10.67;10.67;25.60;39.00;;;;;;4964239;28;8800;-74
2022/05/27 02:06:03;;;;;;;;;13.00;13.00;25.50;38.90;;;;;;4965139;28;8772;-74
2022/05/27 02:08:49;;;;;;;;;12.67;12.33;25.50;38.80;;;;;;4955930;29;8791;-74
2022/05/27 02:11:19;;;;;;;;;10.00;10.00;25.60;38.70;;;;;;4955899;29;8812;-74
2022/05/27 02:14:11;;;;;;;;;12.67;12.67;25.50;38.60;;;;;;4956075;28;8824;-73
2022/05/27 02:16:48;;;;;;;;;11.00;11.00;25.60;38.80;;;;;;4956037;29;8862;-74
2022/05/27 02:19:35;;;;;;;;;12.33;12.33;25.60;38.80;;;;;;4955818;29;8834;-74
2022/05/27 02:22:09;;;;;;;;;14.00;14.00;25.60;38.70;;;;;;4970802;28;8831;-74
2022/05/27 02:24:43;;;;;;;;;10.00;10.00;25.60;38.90;;;;;;4955850;28;8943;-74
2022/05/27 02:27:34;;;;;;;;;12.00;12.00;25.50;38.90;;;;;;4955641;28;8803;-74
2022/05/27 02:30:04;;;;;;;;;13.00;13.00;25.60;38.80;;;;;;4953841;28;9435;-73
2022/05/27 02:32:38;;;;;;;;;11.33;11.33;25.60;39.00;;;;;;4959386;28;8796;-74
2022/05/27 02:35:17;;;;;;;;;14.67;14.67;25.60;39.20;;;;;;4959100;28;8835;-74
2022/05/27 02:37:49;;;;;;;;;11.00;11.00;25.70;39.10;;;;;;4959027;28;8886;-73
2022/05/27 02:40:28;;;;;;;;;13.33;13.33;25.80;38.80;;;;;;4958967;28;9320;-73
2022/05/27 02:43:21;;;;;;;;;14.67;14.67;25.70;39.00;;;;;;4959088;28;8792;-73
2022/05/27 02:46:02;;;;;;;;;10.00;10.00;25.70;39.60;;;;;;4959291;28;8791;-73
2022/05/27 02:48:27;;;;;;;;;12.33;12.33;25.70;40.70;;;;;;4959184;28;8776;-73
2022/05/27 02:51:05;;;;;;;;;9.67;9.67;25.70;40.70;;;;;;4959143;28;8807;-73
2022/05/27 02:53:44;;;;;;;;;12.00;12.00;25.70;40.70;;;;;;4959035;28;8923;-73
2022/05/27 02:56:20;;;;;;;;;14.33;14.33;25.70;40.90;;;;;;4959072;28;8784;-73
2022/05/27 02:58:48;;;;;;;;;9.67;9.67;25.70;41.20;;;;;;4958798;28;8752;-73
2022/05/27 03:01:14;;;;;;;;;14.00;14.00;25.70;41.40;;;;;;4958632;28;8843;-73
2022/05/27 03:03:40;;;;;;;;;11.67;11.67;25.70;42.40;;;;;;4958689;28;9378;-73
2022/05/27 03:06:18;;;;;;;;;13.67;13.67;25.80;41.40;;;;;;4958571;28;8798;-73
2022/05/27 03:09:13;;;;;;;;;13.33;13.33;25.80;41.20;;;;;;4958563;28;8822;-73
2022/05/27 03:12:06;;;;;;;;;14.33;14.33;25.80;41.20;;;;;;4958514;28;8788;-73
2022/05/27 03:14:44;;;;;;;;;10.67;10.67;25.90;41.30;;;;;;4958748;28;8950;-73
2022/05/27 03:17:28;;;;;;;;;12.00;12.00;25.80;41.10;;;;;;4973506;28;9514;-73
2022/05/27 03:20:26;;;;;;;;;14.00;14.00;25.80;41.20;;;;;;4958284;28;8799;-74
2022/05/27 03:23:16;;;;;;;;;12.67;12.67;25.70;41.20;;;;;;4973734;28;8827;-73
2022/05/27 03:25:56;;;;;;;;;14.67;14.67;25.70;41.60;;;;;;4958324;28;8764;-74
2022/05/27 03:28:34;;;;;;;;;14.00;14.00;25.70;41.80;;;;;;4958438;28;8804;-73
2022/05/27 03:31:15;;;;;;;;;14.00;14.00;25.70;41.80;;;;;;4958273;28;8898;-73
2022/05/27 03:34:08;;;;;;;;;12.67;12.67;25.70;41.80;;;;;;4958238;28;8827;-73
2022/05/27 03:36:43;;;;;;;;;14.33;14.33;25.70;41.60;;;;;;4966865;28;8805;-73
2022/05/27 03:39:14;;;;;;;;;10.00;10.00;25.80;41.50;;;;;;4964007;28;8788;-73
2022/05/27 03:41:47;;;;;;;;;12.67;12.67;25.60;41.60;;;;;;4977504;28;8899;-74
2022/05/27 03:44:20;;;;;;;;;13.67;13.67;25.50;41.70;;;;;;4968265;28;8842;-73
2022/05/27 03:46:50;;;;;;;;;12.00;12.00;25.60;41.80;;;;;;4957707;28;8788;-73
2022/05/27 03:49:16;;;;;;;;;12.67;12.67;25.60;41.80;;;;;;4957915;28;8760;-72
2022/05/27 03:51:56;;;;;;;;;15.33;15.33;25.60;41.70;;;;;;4958016;28;8804;-73
2022/05/27 03:54:22;;;;;;;;;14.33;14.33;25.60;41.70;;;;;;4958061;28;8787;-73
2022/05/27 03:56:49;;;;;;;;;12.33;12.33;25.60;41.70;;;;;;4957681;28;8776;-73
2022/05/27 03:59:16;;;;;;;;;11.00;11.00;25.70;41.50;;;;;;4957660;28;8899;-73
2022/05/27 04:01:46;;;;;;;;;13.00;13.00;25.70;41.80;;;;;;4957741;28;8804;-73
2022/05/27 04:04:17;;;;;;;;;9.33;9.33;25.80;41.60;;;;;;4957573;28;8784;-73
2022/05/27 04:06:43;;;;;;;;;16.67;16.67;25.70;41.50;;;;;;4957803;28;8768;-73
2022/05/27 04:09:09;;;;;;;;;15.67;15.67;25.70;41.20;;;;;;4957438;28;8794;-74
2022/05/27 04:11:36;;;;;;;;;17.33;17.33;25.50;41.60;;;;;;4957703;28;8815;-73
2022/05/27 04:14:02;;;;;;;;;12.33;12.33;25.50;41.70;;;;;;4957749;28;8824;-73
2022/05/27 04:16:28;;;;;;;;;16.00;16.00;25.50;41.90;;;;;;4957653;28;8760;-73
2022/05/27 04:18:54;;;;;;;;;12.33;12.33;25.60;42.30;;;;;;4957467;28;8787;-73
2022/05/27 04:21:20;;;;;;;;;15.33;15.33;25.70;42.30;;;;;;4957125;28;9482;-72
2022/05/27 04:23:45;;;;;;;;;17.00;17.00;25.80;43.20;;;;;;4956946;28;8785;-73
2022/05/27 04:26:11;;;;;;;;;14.33;14.33;25.70;43.00;;;;;;4957196;28;8802;-72
2022/05/27 04:28:38;;;;;;;;;13.33;13.33;25.80;42.70;;;;;;4957136;28;8772;-73
2022/05/27 04:31:04;;;;;;;;;14.67;14.67;25.80;42.50;;;;;;4957099;28;8796;-73
2022/05/27 04:33:30;;;;;;;;;14.33;14.33;25.80;42.30;;;;;;4956661;28;8862;-73
2022/05/27 04:35:57;;;;;;;;;16.33;16.33;25.80;42.30;;;;;;4957072;28;9454;-73
2022/05/27 04:38:24;;;;;;;;;16.33;16.33;25.90;42.30;;;;;;4957853;28;9678;-72
2022/05/27 04:40:49;;;;;;;;;15.67;15.67;25.80;41.90;;;;;;4969602;28;9471;-73
2022/05/27 04:43:16;;;;;;;;;14.67;14.67;25.90;42.20;;;;;;4962477;28;8870;-73
2022/05/27 04:45:42;;;;;;;;;14.00;14.00;25.80;42.30;;;;;;4956962;28;9442;-73
2022/05/27 04:48:09;;;;;;;;;18.33;18.33;25.90;42.40;;;;;;4956516;28;8783;-73
2022/05/27 04:50:35;;;;;;;;;16.00;16.00;25.90;42.10;;;;;;4964953;28;8790;-73
2022/05/27 04:53:02;;;;;;;;;16.33;16.33;25.90;42.20;;;;;;4968995;28;8867;-73
2022/05/27 04:55:30;;;;;;;;;16.00;16.00;25.90;42.30;;;;;;4968864;28;8824;-73
2022/05/27 04:57:59;;;;;;;;;18.00;18.00;25.80;42.40;;;;;;4963800;28;8895;-73
2022/05/27 05:00:32;;;;;;;;;15.33;15.33;25.90;42.60;;;;;;4974002;28;9016;-74
2022/05/27 05:02:58;;;;;;;;;19.67;19.67;25.90;42.60;;;;;;4957321;28;8818;-73
2022/05/27 05:05:28;;;;;;;;;15.33;15.33;26.00;42.40;;;;;;4963480;28;8770;-74
2022/05/27 05:08:01;;;;;;;;;17.67;16.67;26.00;42.20;;;;;;4970005;28;8884;-74
2022/05/27 05:10:27;;;;;;;;;19.67;19.67;26.00;42.30;;;;;;4957361;28;8888;-75
2022/05/27 05:12:54;;;;;;;;;20.00;20.00;26.00;42.20;;;;;;4956256;28;8783;-76
2022/05/27 05:15:21;;;;;;;;;19.67;19.67;26.10;42.30;;;;;;4955865;28;8835;-76
2022/05/27 05:17:48;;;;;;;;;18.00;18.00;26.00;42.30;;;;;;4956079;28;8842;-76
2022/05/27 05:20:17;;;;;;;;;18.67;18.67;26.00;42.20;;;;;;4956139;28;8811;-76
2022/05/27 05:22:43;;;;;;;;;18.33;18.33;25.90;42.40;;;;;;4956425;28;8775;-77
2022/05/27 05:25:10;;;;;;;;;16.67;16.67;26.00;42.40;;;;;;4971343;28;8788;-76
2022/05/27 05:27:38;;;;;;;;;16.00;16.00;26.10;42.30;;;;;;4956316;28;8772;-75
2022/05/27 05:30:05;;;;;;;;;15.00;15.00;26.20;42.10;;;;;;4956105;28;8807;-76
2022/05/27 05:32:32;;;;;;;;;17.00;17.00;26.20;41.80;;;;;;4956416;28;8826;-76
2022/05/27 05:34:59;;;;;;;;;16.33;15.00;26.30;41.40;;;;;;4956027;28;8816;-76
2022/05/27 05:37:26;;;;;;;;;19.33;19.33;26.30;41.40;;;;;;4956423;28;8784;-76
2022/05/27 05:39:52;;;;;;;;;21.67;21.67;26.50;41.20;;;;;;4956293;28;8862;-76
2022/05/27 05:42:17;;;;;;;;;23.00;23.00;26.50;41.30;;;;;;4956321;28;8784;-76
2022/05/27 05:44:43;;;;;;;;;19.33;19.33;26.50;41.60;;;;;;4956207;28;8898;-75
2022/05/27 05:47:09;;;;;;;;;16.33;16.33;26.60;42.00;;;;;;4956272;29;8815;-76
2022/05/27 05:49:35;;;;;;;;;19.00;19.00;26.70;42.00;;;;;;4956214;28;8792;-75
2022/05/27 05:52:01;;;;;;;;;19.33;19.33;26.70;41.70;;;;;;4955911;29;8878;-75
2022/05/27 05:54:28;;;;;;;;;19.67;18.67;26.80;41.80;;;;;;4971352;28;8815;-76
2022/05/27 05:56:55;;;;;;;;;20.67;20.00;26.80;42.00;;;;;;4955910;28;8922;-77
2022/05/27 05:59:22;;;;;;;;;8.33;8.33;26.90;42.20;;;;;;4956279;28;8875;-76
2022/05/27 06:01:48;;;;;;;;;19.67;19.67;26.80;42.20;;;;;;4957120;28;8823;-76
2022/05/27 06:04:14;;;;;;;;;19.33;19.33;26.80;42.10;;;;;;4959764;28;8812;-77
2022/05/27 06:06:40;;;;;;;;;20.33;20.33;26.90;42.10;;;;;;4959872;28;8867;-78
2022/05/27 06:09:07;;;;;;;;;19.67;19.67;27.00;41.80;;;;;;4959765;28;8881;-79
2022/05/27 06:11:36;;;;;;;;;19.67;19.67;27.20;41.50;;;;;;4959659;28;8891;-78
2022/05/27 06:14:02;;;;;;;;;22.33;22.33;27.00;41.40;;;;;;4959401;28;8807;-79
2022/05/27 06:16:28;;;;;;;;;20.33;20.33;27.10;41.40;;;;;;4974554;28;9749;-76
2022/05/27 06:18:54;;;;;;;;;22.33;22.33;27.20;41.30;;;;;;4974429;28;8938;-79
2022/05/27 06:21:19;;;;;;;;;24.33;24.33;27.30;41.10;;;;;;4959569;28;8800;-78
2022/05/27 06:23:45;;;;;;;;;21.00;21.00;27.20;41.10;;;;;;4959455;28;8799;-77
2022/05/27 06:26:12;;;;;;;;;21.33;21.33;27.00;41.40;;;;;;4959661;28;8784;-76
2022/05/27 06:34:25;;;;;;;;;20.00;20.00;27.20;41.80;;;;;;4959029;28;8828;-75
2022/05/27 06:37:15;;;;;;;;;16.67;16.67;27.10;41.00;;;;;;4959180;28;8887;-75
2022/05/27 06:39:42;;;;;;;;;20.00;20.00;27.20;41.30;;;;;;4955866;28;8792;-74
2022/05/27 06:42:10;;;;;;;;;21.00;21.00;27.30;41.10;;;;;;4959140;28;8796;-74
2022/05/27 06:44:36;;;;;;;;;18.00;18.00;27.30;41.00;;;;;;4959167;28;8820;-73
2022/05/27 06:47:03;;;;;;;;;22.67;22.67;27.40;40.80;;;;;;4959138;28;8788;-75
2022/05/27 06:49:29;;;;;;;;;18.67;18.67;27.50;40.60;;;;;;4959119;28;8788;-70
2022/05/27 06:51:55;;;;;;;;;18.67;18.67;27.40;40.70;;;;;;4958744;28;8827;-73
2022/05/27 06:54:22;;;;;;;;;22.00;22.00;27.40;40.70;;;;;;4959204;28;8780;-76
2022/05/27 06:56:50;;;;;;;;;21.33;21.33;27.60;40.60;;;;;;4973748;28;8816;-75
2022/05/27 06:59:16;;;;;;;;;20.00;20.00;27.60;40.10;;;;;;4959005;28;8776;-74
2022/05/27 07:01:43;;;;;;;;;17.67;17.67;27.60;39.80;;;;;;4958551;28;8838;-74
2022/05/27 07:04:09;;;;;;;;;20.67;20.67;27.70;40.10;;;;;;4973621;28;8852;-75
2022/05/27 07:06:44;;;;;;;;;19.33;19.33;27.90;40.10;;;;;;4973663;28;8800;-76
2022/05/27 07:09:15;;;;;;;;;19.00;19.00;28.10;39.90;;;;;;4958920;28;8764;-73
2022/05/27 07:11:43;;;;;;;;;19.00;19.00;28.30;38.80;;;;;;4958839;28;8858;-77
2022/05/27 07:14:09;;;;;;;;;17.67;17.67;28.30;38.00;;;;;;4973276;28;8796;-79
2022/05/27 07:16:35;;;;;;;;;15.00;15.00;28.60;38.20;;;;;;4958805;28;8811;-77
2022/05/27 07:19:01;;;;;;;;;17.33;17.33;28.80;37.60;;;;;;4958548;28;8807;-75
2022/05/27 07:21:27;;;;;;;;;18.33;18.33;29.20;37.40;;;;;;4958248;28;8816;-76
2022/05/27 07:23:54;;;;;;;;;18.33;18.33;29.20;36.00;;;;;;4958166;28;8760;-78
2022/05/27 07:26:21;;;;;;;;;16.67;16.67;29.10;36.50;;;;;;4958147;28;8784;-79
2022/05/27 07:28:47;;;;;;;;;17.67;17.67;29.10;36.00;;;;;;4958192;28;8764;-77
2022/05/27 07:31:13;;;;;;;;;20.00;20.00;28.90;36.10;;;;;;4958331;28;8780;-79
2022/05/27 07:33:40;;;;;;;;;12.67;12.67;28.80;36.40;;;;;;4957792;28;8800;-75
2022/05/27 07:36:06;;;;;;;;;16.33;16.33;28.80;36.30;;;;;;4958147;28;8752;-79
2022/05/27 07:38:32;;;;;;;;;15.00;15.00;28.80;36.40;;;;;;4958581;28;9395;-74
2022/05/27 07:40:58;;;;;;;;;18.67;18.67;28.80;35.60;;;;;;4957932;28;8855;-77
2022/05/27 07:43:23;;;;;;;;;17.00;17.00;28.70;34.80;;;;;;4957731;28;8772;-76
2022/05/27 07:45:49;;;;;;;;;13.00;13.00;28.80;35.20;;;;;;4957811;28;8859;-79
2022/05/27 07:48:15;;;;;;;;;11.33;11.33;28.80;34.70;;;;;;4958245;28;8800;-80
2022/05/27 07:50:41;;;;;;;;;12.67;12.67;28.80;34.60;;;;;;4958024;28;8796;-81
2022/05/27 07:53:07;;;;;;;;;8.33;8.33;28.90;35.10;;;;;;4957912;28;8784;-73
2022/05/27 07:55:33;;;;;;;;;10.00;10.00;28.80;33.50;;;;;;4957523;28;11607;-76
2022/05/27 07:57:59;;;;;;;;;7.33;7.33;28.90;33.70;;;;;;4956053;28;11639;-75
2022/05/27 08:00:27;;;;;;;;;8.00;8.00;28.80;32.90;;;;;;4957487;28;8823;-79
2022/05/27 08:02:54;;;;;;;;;11.67;11.67;29.00;33.00;;;;;;4972610;28;8788;-77
2022/05/27 08:05:22;;;;;;;;;9.00;9.00;29.20;33.20;;;;;;4957348;28;12271;-82
2022/05/27 08:07:49;;;;;;;;;10.00;9.00;29.20;32.40;;;;;;4957240;28;11515;-79
2022/05/27 08:10:18;;;;;;;;;10.00;10.00;29.20;33.00;;;;;;4957293;28;11647;-78
2022/05/27 08:12:44;;;;;;;;;7.00;7.00;29.40;33.00;;;;;;4957254;28;11520;-78
2022/05/27 08:15:12;;;;;;;;;7.00;7.00;29.50;31.90;;;;;;4957573;28;11605;-80
2022/05/27 08:17:39;;;;;;;;;9.00;9.00;29.90;31.90;;;;;;4957446;28;8789;-75
2022/05/27 08:20:07;;;;;;;;;9.00;9.00;29.90;31.00;;;;;;4957436;28;11504;-76
2022/05/27 08:22:33;;;;;;;;;8.00;8.00;29.90;31.20;;;;;;4956842;28;11514;-74
2022/05/27 08:24:58;;;;;;;;;8.00;8.00;30.10;30.90;;;;;;4972021;28;11503;-74
2022/05/27 08:27:24;;;;;;;;;8.33;8.33;30.20;30.90;;;;;;4957053;28;8792;-76
2022/05/27 08:29:50;;;;;;;;;6.75;6.75;30.10;31.40;;;;;;4972027;28;8796;-75
2022/05/27 08:32:16;;;;;;;;;9.00;9.00;30.00;30.80;;;;;;4957244;28;8780;-74
2022/05/27 08:40:36;;;;;;;;;7.67;7.67;29.90;30.50;;;;;;4956546;28;12183;-75
2022/05/27 08:43:25;;;;;;;;;11.25;11.25;29.90;30.60;;;;;;4956326;28;11483;-73
2022/05/27 08:46:28;;;;;;;;;8.25;8.25;30.00;31.10;;;;;;4971898;28;11598;-75
2022/05/27 08:49:00;;;;;;;;;7.00;7.00;30.30;30.80;;;;;;4956982;28;11495;-76
2022/05/27 08:51:34;;;;;;;;;7.50;7.50;30.40;31.10;;;;;;4956684;28;11525;-76
2022/05/27 08:54:11;;;;;;;;;10.75;10.75;30.50;31.00;;;;;;4956628;28;11562;-75
2022/05/27 08:59:37;;;;;;;;;8.00;8.00;30.70;29.80;;;;;;4956294;28;11586;-74
2022/05/27 09:02:06;;;;;;;;;9.75;9.75;30.70;30.00;;;;;;4972282;28;11645;-77
2022/05/27 09:04:43;;;;;;;;;12.00;12.00;30.70;30.20;;;;;;4974349;28;11847;-77
2022/05/27 09:07:21;;;;;;;;;11.33;11.33;30.80;29.80;;;;;;4973380;28;11598;-78
2022/05/27 09:09:47;;;;;;;;;11.50;11.50;30.90;29.80;;;;;;4972808;28;11525;-77
2022/05/27 09:12:34;;;;;;;;;6.75;6.75;31.00;29.40;;;;;;4974332;28;11562;-78
2022/05/27 09:15:18;;;;;;;;;9.00;9.00;31.00;29.40;;;;;;4956719;28;8833;-81
2022/05/27 09:17:44;;;;;;;;;9.00;9.00;31.00;29.30;;;;;;4956487;28;11511;-81
2022/05/27 09:20:13;;;;;;;;;10.50;10.50;31.10;29.80;;;;;;4956223;28;11575;-83
2022/05/27 09:23:14;;;;;;;;;7.00;7.00;31.20;29.20;;;;;;4957616;28;8783;-83
2022/05/27 09:26:04;;;;;;;;;7.00;7.00;31.50;29.20;;;;;;4956312;28;11510;-79
2022/05/27 09:28:33;;;;;;;;;8.75;8.75;31.60;28.80;;;;;;4974511;28;11585;-76
2022/05/27 09:31:01;;;;;;;;;8.75;8.75;31.70;28.20;;;;;;4975160;28;11515;-80
2022/05/27 09:33:30;;;;;;;;;8.00;8.00;31.90;28.60;;;;;;4974919;28;11480;-85
2022/05/27 09:36:03;;;;;;;;;8.25;8.25;31.90;28.10;;;;;;4975802;28;11514;-83
2022/05/27 09:38:31;;;;;;;;;7.25;7.25;31.90;28.40;;;;;;4981847;28;11512;-78
2022/05/27 09:41:29;;;;;;;;;10.00;10.00;32.10;28.70;;;;;;4981735;28;11517;-81
2022/05/27 09:44:16;;;;;;;;;7.75;7.75;32.30;28.40;;;;;;4981792;28;11606;-79
2022/05/27 09:46:42;;;;;;;;;9.75;9.75;32.50;28.80;;;;;;4981757;28;11487;-83
2022/05/27 09:49:07;;;;;;;;;7.00;7.00;32.50;27.50;;;;;;4981062;28;11537;-81
2022/05/27 09:51:34;;;;;;;;;6.50;6.50;32.50;27.40;;;;;;4981515;28;8813;-79
2022/05/27 09:54:39;;;;;;;;;10.00;10.00;32.70;27.70;;;;;;4981338;28;8774;-78
2022/05/27 09:57:11;;;;;;;;;10.33;10.33;32.80;28.20;;;;;;4966872;28;11597;-78
2022/05/27 09:59:44;;;;;;;;;9.25;9.25;32.70;27.30;;;;;;4978778;28;11528;-76
2022/05/27 10:02:18;;;;;;;;;7.50;7.50;32.80;27.10;;;;;;4981092;28;11518;-79
2022/05/27 10:05:05;;;;;;;;;7.25;7.25;32.80;27.10;;;;;;4981522;28;11508;-77
2022/05/27 10:07:50;;;;;;;;;9.00;9.00;33.10;27.40;;;;;;4968222;28;11480;-78
2022/05/27 10:10:21;;;;;;;;;7.75;7.75;33.20;27.00;;;;;;4981417;28;11486;-73
2022/05/27 10:12:47;;;;;;;;;10.00;10.00;33.20;26.50;;;;;;4981458;28;11498;-76
2022/05/27 10:15:45;;;;;;;;;7.00;7.00;33.40;27.20;;;;;;4981738;28;11531;-76
2022/05/27 10:18:16;;;;;;;;;9.00;9.00;33.70;27.10;;;;;;4902779;29;11684;-79
2022/05/27 10:20:46;;;;;;;;;6.75;6.75;33.90;26.60;;;;;;4902893;29;11586;-76
2022/05/27 10:23:25;;;;;;;;;8.00;8.00;34.10;26.00;;;;;;4903061;29;11602;-81
2022/05/27 10:25:50;;;;;;;;;9.50;9.50;34.10;26.40;;;;;;4902836;29;11638;-76
2022/05/27 10:28:31;;;;;;;;;8.75;8.75;34.20;26.00;;;;;;4902588;29;11616;-79
2022/05/27 10:31:04;;;;;;;;;8.00;8.00;34.30;25.90;;;;;;4902940;29;8785;-76
2022/05/27 10:33:44;;;;;;;;;9.75;9.75;34.40;25.70;;;;;;4902432;29;11580;-81
2022/05/27 10:36:37;;;;;;;;;8.75;8.75;34.50;26.10;;;;;;4902871;29;11585;-79
2022/05/27 10:39:13;;;;;;;;;7.75;7.75;34.70;25.50;;;;;;4903044;29;12322;-79
2022/05/27 10:42:05;;;;;;;;;9.25;9.25;34.70;25.50;;;;;;4902615;29;12230;-81
2022/05/27 10:44:58;;;;;;;;;9.00;9.00;34.80;25.20;;;;;;4902468;29;11644;-79
2022/05/27 10:47:32;;;;;;;;;9.50;9.50;35.00;25.10;;;;;;4902358;29;11597;-78
2022/05/27 10:50:37;;;;;;;;;10.00;10.00;35.30;25.60;;;;;;4898853;29;11587;-79
2022/05/27 10:53:16;;;;;;;;;6.00;6.00;35.40;24.40;;;;;;4884474;28;11534;-77
2022/05/27 10:55:59;;;;;;;;;6.25;6.25;35.50;24.30;;;;;;4978075;28;11606;-78
2022/05/27 11:02:05;;;;;;;;;8.50;8.50;35.50;24.60;;;;;;4951172;28;11544;-78
2022/05/27 11:04:30;;;;;;;;;5.75;5.75;35.60;25.20;;;;;;4993003;28;11594;-78
2022/05/27 11:07:08;;;;;;;;;7.50;7.50;35.40;24.40;;;;;;4977717;28;11486;-77
2022/05/27 11:10:08;;;;;;;;;10.25;10.25;35.40;24.00;;;;;;4977770;28;8778;-78
2022/05/27 11:15:35;;;;;;;;;9.25;9.25;36.10;24.10;;;;;;4978152;28;11531;-75
2022/05/27 11:18:20;;;;;;;;;8.25;8.25;36.10;24.80;;;;;;4977457;28;11639;-76
2022/05/27 11:21:11;;;;;;;;;8.00;8.00;36.00;23.70;;;;;;4977800;28;9488;-79
2022/05/27 11:24:04;;;;;;;;;9.00;9.00;36.10;24.20;;;;;;4977791;28;12204;-79
2022/05/27 11:26:56;;;;;;;;;6.25;6.25;36.40;23.70;;;;;;4977473;28;11493;-76
2022/05/27 11:29:21;;;;;;;;;9.75;9.75;36.40;23.40;;;;;;4977574;28;12271;-76
2022/05/27 11:32:21;;;;;;;;;9.00;9.00;36.80;23.60;;;;;;4977242;28;11623;-79
2022/05/27 11:34:49;;;;;;;;;9.25;9.25;37.00;23.80;;;;;;4977334;28;8821;-72
2022/05/27 11:37:42;;;;;;;;;7.50;7.50;37.20;23.20;;;;;;4977328;28;11554;-71
2022/05/27 11:40:32;;;;;;;;;9.50;9.50;37.20;22.90;;;;;;4977538;28;11491;-73
2022/05/27 11:43:10;;;;;;;;;7.00;7.00;37.60;23.30;;;;;;4977195;28;11530;-79
2022/05/27 11:45:37;;;;;;;;;9.00;9.00;37.90;23.10;;;;;;4977236;28;11642;-79
2022/05/27 11:48:18;;;;;;;;;8.00;8.00;37.90;22.90;;;;;;4977372;28;11482;-76
2022/05/27 11:50:53;;;;;;;;;10.50;10.50;37.60;22.80;;;;;;4977244;28;12242;-72
2022/05/27 11:53:51;;;;;;;;;9.00;9.00;38.30;22.60;;;;;;4977229;28;11523;-76
2022/05/27 11:56:19;;;;;;;;;8.00;8.00;42.00;21.40;;;;;;4977177;28;11632;-70
2022/05/27 11:58:51;;;;;;;;;10.75;10.75;48.00;19.30;;;;;;4976810;28;11603;-72
2022/05/27 12:01:41;;;;;;;;;9.00;9.00;51.40;17.50;;;;;;4991449;28;11608;-78
2022/05/27 12:04:21;;;;;;;;;7.00;7.00;53.80;14.80;;;;;;4976987;28;11620;-78
2022/05/27 12:07:08;;;;;;;;;12.50;12.50;50.10;14.40;;;;;;4976563;28;11482;-79
2022/05/27 12:09:55;;;;;;;;;10.50;10.50;46.50;16.10;;;;;;4976764;28;11593;-76
2022/05/27 12:12:52;;;;;;;;;8.50;8.50;43.70;18.10;;;;;;4976747;28;11475;-78
2022/05/27 12:15:34;;;;;;;;;10.00;10.00;42.10;19.50;;;;;;4976481;28;11501;-78
2022/05/27 12:18:02;;;;;;;;;10.50;10.50;41.20;20.20;;;;;;4976498;28;11640;-79
2022/05/27 12:20:32;;;;;;;;;10.00;10.00;40.70;20.30;;;;;;4976304;28;11558;-82
2022/05/27 12:23:04;;;;;;;;;10.25;10.25;39.80;20.90;;;;;;4976307;28;11495;-80
2022/05/27 12:25:52;;;;;;;;;10.75;10.75;39.20;20.80;;;;;;4976499;28;11494;-79
2022/05/27 12:28:27;;;;;;;;;9.50;9.50;38.80;21.70;;;;;;4975835;28;11613;-76
2022/05/27 12:30:55;;;;;;;;;10.00;10.00;38.90;21.90;;;;;;4967846;28;11487;-76
2022/05/27 12:33:24;;;;;;;;;10.75;10.50;38.50;21.90;;;;;;4957421;28;11575;-77
2022/05/27 12:36:06;;;;;;;;;10.75;10.75;38.40;21.80;;;;;;4957186;28;11618;-75
2022/05/27 12:38:42;;;;;;;;;6.75;6.75;38.80;21.80;;;;;;4960841;28;11542;-75
2022/05/27 12:41:09;;;;;;;;;9.00;9.00;38.90;22.00;;;;;;4966824;28;11580;-75
2022/05/27 12:43:38;;;;;;;;;10.75;10.75;38.60;21.90;;;;;;4965419;28;11525;-75
2022/05/27 12:46:04;;;;;;;;;9.00;9.00;38.50;22.00;;;;;;4969769;28;11551;-76
2022/05/27 12:48:32;;;;;;;;;7.75;7.75;38.40;22.20;;;;;;4964482;28;11590;-75
2022/05/27 12:51:07;;;;;;;;;8.50;8.50;38.40;21.90;;;;;;4972465;28;8826;-76
2022/05/27 12:53:49;;;;;;;;;9.25;9.25;38.70;22.50;;;;;;4972094;28;11496;-77
2022/05/27 13:02:33;;;;;;;;;11.00;11.00;38.80;21.60;;;;;;4974480;28;11650;-73
2022/05/27 13:05:03;;;;;;;;;10.00;10.00;38.30;22.00;;;;;;4952749;28;11566;-78
2022/05/27 13:07:38;;;;;;;;;8.75;8.75;38.30;22.60;;;;;;4964398;28;11520;-75
2022/05/27 13:10:16;;;;;;;;;10.50;10.50;38.10;22.30;;;;;;4972733;28;11563;-74
2022/05/27 13:12:46;;;;;;;;;11.75;11.75;38.30;22.40;;;;;;4971554;28;11526;-74
2022/05/27 13:15:12;;;;;;;;;5.50;5.50;38.30;22.70;;;;;;4989410;28;13168;-73
2022/05/27 13:17:45;;;;;;;;;11.00;11.00;37.90;22.40;;;;;;4969825;28;11521;-76
2022/05/27 13:20:20;;;;;;;;;11.50;11.50;37.90;22.60;;;;;;4973114;28;8792;-75
2022/05/27 13:23:04;;;;;;;;;11.00;11.00;38.10;22.60;;;;;;4972724;28;11540;-73
2022/05/27 13:25:34;;;;;;;;;11.00;11.00;38.20;22.70;;;;;;4972975;28;11530;-76
2022/05/27 13:28:04;;;;;;;;;8.50;8.50;38.40;22.50;;;;;;4970863;28;11564;-77
2022/05/27 13:30:48;;;;;;;;;10.75;10.75;38.30;22.70;;;;;;4974101;28;12164;-76
2022/05/27 13:33:18;;;;;;;;;12.75;12.75;38.20;22.90;;;;;;4971536;28;12284;-74
2022/05/27 13:35:48;;;;;;;;;8.75;8.75;38.00;23.30;;;;;;4971820;28;11548;-77
2022/05/27 13:38:20;;;;;;;;;9.00;9.00;37.80;22.80;;;;;;4971510;28;11506;-75
2022/05/27 13:40:47;;;;;;;;;11.00;11.00;37.90;23.20;;;;;;4965641;28;11553;-76